VLG5231 LEBB-LEBA

Flight info

Callsign VLG5231
Flight time 1h 5m
Altitude 37000
Route AMTOS L14 NEA N864 MOCEQ
Aircraft A320/M-SDE3FGHIRWY/LB1

Departure

Time 2026-05-04 15:57
Airport Bilbao Airport (LEBB)

Arrival

Time 2026-05-04 17:03
Airport Córdoba Airport (LEBA)
Time Latitude Longitude Altitude Speed Heading
2026-05-04 15:05 43.30428 -2.90634 133 ft 0 kts 26°
2026-05-04 15:45 43.30409 -2.90646 132 ft 4 kts 26°
2026-05-04 15:45 43.30387 -2.90666 132 ft 4 kts 54°
2026-05-04 15:45 43.30377 -2.90693 132 ft 4 kts 86°
2026-05-04 15:46 43.30383 -2.90726 132 ft 4 kts 119°
2026-05-04 15:46 43.30388 -2.90737 132 ft 0 kts 116°
2026-05-04 15:50 43.30385 -2.90729 132 ft 2 kts 116°
2026-05-04 15:51 43.30375 -2.90702 132 ft 4 kts 116°
2026-05-04 15:51 43.30361 -2.90662 132 ft 5 kts 116°
2026-05-04 15:51 43.30343 -2.90618 132 ft 5 kts 123°
2026-05-04 15:51 43.30316 -2.90587 132 ft 5 kts 145°
2026-05-04 15:52 43.30286 -2.90558 132 ft 6 kts 145°
2026-05-04 15:52 43.30252 -2.90525 132 ft 6 kts 147°
2026-05-04 15:52 43.30216 -2.90528 132 ft 5 kts 203°
2026-05-04 15:52 43.30191 -2.90548 132 ft 4 kts 211°
2026-05-04 15:53 43.30153 -2.90577 132 ft 7 kts 201°
2026-05-04 15:53 43.30113 -2.90555 132 ft 6 kts 135°
2026-05-04 15:53 43.30094 -2.90507 132 ft 7 kts 117°
2026-05-04 15:53 43.30057 -2.90406 132 ft 14 kts 116°
2026-05-04 15:54 43.30012 -2.90285 132 ft 15 kts 116°
2026-05-04 15:54 43.29966 -2.90159 132 ft 15 kts 116°
2026-05-04 15:54 43.29920 -2.90035 132 ft 15 kts 117°
2026-05-04 15:54 43.29874 -2.89907 132 ft 15 kts 116°
2026-05-04 15:55 43.29827 -2.89781 132 ft 15 kts 117°
2026-05-04 15:55 43.29782 -2.89658 132 ft 14 kts 116°
2026-05-04 15:55 43.29733 -2.89585 132 ft 10 kts 180°
2026-05-04 15:55 43.29678 -2.89618 132 ft 8 kts 232°
2026-05-04 15:56 43.29651 -2.89679 132 ft 7 kts 238°
2026-05-04 15:56 43.29629 -2.89727 132 ft 5 kts 242°
2026-05-04 15:56 43.29635 -2.89763 132 ft 4 kts 297°
2026-05-04 15:56 43.29690 -2.89915 132 ft 48 kts 296°
2026-05-04 15:57 43.29942 -2.90602 127 ft 113 kts 296°
2026-05-04 15:57 43.30374 -2.91778 153 ft 160 kts 296°
2026-05-04 15:57 43.30867 -2.93097 946 ft 151 kts 298°
2026-05-04 15:57 43.31353 -2.94373 1786 ft 153 kts 298°
2026-05-04 15:58 43.31840 -2.95669 2590 ft 152 kts 300°
2026-05-04 15:58 43.32379 -2.96903 3279 ft 151 kts 313°
2026-05-04 15:58 43.33154 -2.97969 3654 ft 168 kts 316°
2026-05-04 15:58 43.34044 -2.99158 3938 ft 190 kts 316°
2026-05-04 15:59 43.35053 -3.00484 4240 ft 211 kts 317°
2026-05-04 15:59 43.36173 -3.01956 4566 ft 235 kts 317°
2026-05-04 15:59 43.37406 -3.03584 5100 ft 253 kts 317°
2026-05-04 15:59 43.38674 -3.05311 5902 ft 260 kts 311°
2026-05-04 16:00 43.39526 -3.07519 6691 ft 265 kts 288°
2026-05-04 16:00 43.39765 -3.10029 7523 ft 269 kts 262°
2026-05-04 16:00 43.38982 -3.12367 8320 ft 277 kts 228°
2026-05-04 16:00 43.37373 -3.13829 9158 ft 282 kts 202°
2026-05-04 16:01 43.35473 -3.14588 9813 ft 287 kts 193°
2026-05-04 16:01 43.33506 -3.15040 9986 ft 286 kts 189°
2026-05-04 16:01 43.31440 -3.15300 10029 ft 313 kts 183°
2026-05-04 16:01 43.29246 -3.15286 10030 ft 323 kts 178°
2026-05-04 16:02 43.27006 -3.14878 10031 ft 327 kts 170°
2026-05-04 16:02 43.24809 -3.14032 10164 ft 333 kts 161°
2026-05-04 16:02 43.20527 -3.11579 11805 ft 334 kts 168°
2026-05-04 16:03 43.18225 -3.11217 12547 ft 334 kts 184°
2026-05-04 16:03 43.15936 -3.11730 13258 ft 334 kts 199°
2026-05-04 16:03 43.13811 -3.12995 13972 ft 334 kts 207°
2026-05-04 16:03 43.11716 -3.14390 14182 ft 333 kts 207°
2026-05-04 16:04 43.09657 -3.15752 13945 ft 325 kts 207°
2026-05-04 16:04 43.05665 -3.18374 13417 ft 312 kts 207°
2026-05-04 16:04 43.03728 -3.19646 13150 ft 306 kts 207°
2026-05-04 16:05 43.01827 -3.20891 12881 ft 300 kts 207°
2026-05-04 16:05 42.99975 -3.22161 12609 ft 295 kts 212°
2026-05-04 16:05 42.96594 -3.25281 12096 ft 292 kts 216°
2026-05-04 16:06 42.94922 -3.26839 11834 ft 291 kts 215°
2026-05-04 16:06 42.90480 -3.30957 11156 ft 289 kts 215°
2026-05-04 16:07 42.88276 -3.32990 10831 ft 288 kts 215°
2026-05-04 16:07 42.83313 -3.37579 10110 ft 286 kts 215°
2026-05-04 16:08 42.81671 -3.39100 10013 ft 283 kts 215°
2026-05-04 16:08 42.76793 -3.43596 10016 ft 282 kts 216°
2026-05-04 16:09 42.73545 -3.46589 10721 ft 286 kts 215°
2026-05-04 16:09 42.70219 -3.49652 12287 ft 291 kts 215°
2026-05-04 16:10 42.66853 -3.52755 13835 ft 297 kts 215°
2026-05-04 16:11 42.61654 -3.57526 15003 ft 302 kts 215°
2026-05-04 16:11 42.59905 -3.59131 15334 ft 305 kts 215°
2026-05-04 16:12 42.54587 -3.63992 17372 ft 312 kts 215°
2026-05-04 16:12 42.49112 -3.68993 19181 ft 320 kts 215°
2026-05-04 16:13 42.45402 -3.72384 20338 ft 323 kts 216°
2026-05-04 16:13 42.41652 -3.75804 21506 ft 327 kts 216°
2026-05-04 16:14 42.37857 -3.79255 22640 ft 331 kts 216°
2026-05-04 16:14 42.34015 -3.82737 23720 ft 334 kts 216°
2026-05-04 16:15 42.28857 -3.87408 25001 ft 337 kts 217°
2026-05-04 16:16 42.24942 -3.90945 25906 ft 340 kts 217°
2026-05-04 16:16 42.18993 -3.96320 27195 ft 346 kts 217°
2026-05-04 16:17 42.14974 -3.99941 28034 ft 350 kts 217°
2026-05-04 16:18 42.08857 -4.05438 29261 ft 355 kts 217°
2026-05-04 16:18 42.06803 -4.07284 29660 ft 356 kts 217°
2026-05-04 16:19 41.99873 -4.11174 30626 ft 375 kts 194°
2026-05-04 16:19 41.94566 -4.11855 30946 ft 390 kts 190°
2026-05-04 16:20 41.86247 -4.12813 31301 ft 409 kts 190°
2026-05-04 16:20 41.80770 -4.13414 33211 ft 376 kts 190°
2026-05-04 16:21 41.73049 -4.14281 34371 ft 372 kts 191°
2026-05-04 16:22 41.67873 -4.14887 34742 ft 376 kts 191°
2026-05-04 16:22 41.59972 -4.15785 35306 ft 382 kts 191°
2026-05-04 16:23 41.51975 -4.16680 35856 ft 387 kts 191°
2026-05-04 16:24 41.41124 -4.17908 36512 ft 395 kts 191°
2026-05-04 16:25 41.35610 -4.18521 36776 ft 400 kts 191°
2026-05-04 16:26 41.24370 -4.19786 36971 ft 417 kts 191°
2026-05-04 16:26 41.15587 -4.20772 36973 ft 425 kts 191°
2026-05-04 16:28 41.00847 -4.22389 36972 ft 425 kts 191°
2026-05-04 16:29 40.80256 -4.24672 36949 ft 425 kts 191°
2026-05-04 16:31 40.65522 -4.26297 36972 ft 425 kts 191°
2026-05-04 16:32 40.47849 -4.28221 36960 ft 425 kts 191°
2026-05-04 16:33 40.36075 -4.29501 36927 ft 424 kts 191°
2026-05-04 16:34 40.27266 -4.30471 36940 ft 424 kts 191°
2026-05-04 16:35 40.09649 -4.32370 36942 ft 423 kts 192°
2026-05-04 16:36 40.00896 -4.33317 36941 ft 423 kts 191°
2026-05-04 16:37 39.92159 -4.34555 36919 ft 418 kts 196°
2026-05-04 16:38 39.80737 -4.37234 36938 ft 417 kts 197°
2026-05-04 16:39 39.66409 -4.40318 36207 ft 422 kts 196°
2026-05-04 16:40 39.60624 -4.41540 35098 ft 417 kts 196°
2026-05-04 16:40 39.54941 -4.42737 34094 ft 410 kts 197°
2026-05-04 16:41 39.49403 -4.43906 33043 ft 402 kts 197°
2026-05-04 16:41 39.41270 -4.45643 31643 ft 389 kts 197°
2026-05-04 16:42 39.33356 -4.47323 30285 ft 379 kts 197°
2026-05-04 16:43 39.28194 -4.48408 29367 ft 371 kts 197°
2026-05-04 16:43 39.23168 -4.49462 28516 ft 361 kts 197°
2026-05-04 16:43 39.20699 -4.49983 28086 ft 358 kts 197°
2026-05-04 16:44 39.11059 -4.52015 26411 ft 345 kts 197°
2026-05-04 16:45 39.06355 -4.53009 25565 ft 341 kts 197°
2026-05-04 16:46 38.99408 -4.54476 24261 ft 337 kts 197°
2026-05-04 16:46 38.94772 -4.55446 23319 ft 338 kts 196°
2026-05-04 16:47 38.90152 -4.56411 22399 ft 335 kts 196°
2026-05-04 16:47 38.85574 -4.57364 21521 ft 331 kts 195°
2026-05-04 16:48 38.78788 -4.58775 20232 ft 328 kts 195°
2026-05-04 16:48 38.76540 -4.59243 19815 ft 327 kts 195°
2026-05-04 16:49 38.72057 -4.60174 18972 ft 326 kts 195°
2026-05-04 16:49 38.67571 -4.61109 18116 ft 327 kts 195°
2026-05-04 16:50 38.63092 -4.62044 17267 ft 325 kts 195°
2026-05-04 16:50 38.58653 -4.62961 16457 ft 322 kts 194°
2026-05-04 16:51 38.54273 -4.63860 15663 ft 320 kts 194°
2026-05-04 16:51 38.52082 -4.64312 15274 ft 319 kts 194°
2026-05-04 16:51 38.47711 -4.65209 14490 ft 318 kts 194°
2026-05-04 16:52 38.43354 -4.66105 13696 ft 316 kts 193°
2026-05-04 16:52 38.41185 -4.66549 13287 ft 315 kts 193°
2026-05-04 16:53 38.36879 -4.67433 12491 ft 311 kts 193°
2026-05-04 16:53 38.30462 -4.68125 11298 ft 314 kts 172°
2026-05-04 16:54 38.28380 -4.67226 10927 ft 317 kts 159°
2026-05-04 16:55 38.20837 -4.62985 9973 ft 270 kts 160°
2026-05-04 16:55 38.17341 -4.61494 8698 ft 266 kts 180°
2026-05-04 16:56 38.13818 -4.62021 7771 ft 249 kts 193°
2026-05-04 16:56 38.08846 -4.63476 6521 ft 234 kts 215°
2026-05-04 16:57 38.07573 -4.64664 6318 ft 224 kts 221°
2026-05-04 16:57 38.05145 -4.67013 5634 ft 211 kts 220°
2026-05-04 16:58 38.01852 -4.70194 4705 ft 184 kts 221°
2026-05-04 16:58 38.00830 -4.71149 4307 ft 184 kts 219°
2026-05-04 16:59 37.98751 -4.72901 3618 ft 171 kts 219°
2026-05-04 17:00 37.94933 -4.76124 2682 ft 164 kts 218°
2026-05-04 17:00 37.92126 -4.78492 2031 ft 162 kts 216°
2026-05-04 17:01 37.90251 -4.80072 1576 ft 156 kts 215°
2026-05-04 17:01 37.88566 -4.81486 1165 ft 138 kts 218°
2026-05-04 17:02 37.86980 -4.82823 834 ft 137 kts 215°
2026-05-04 17:02 37.85374 -4.84067 417 ft 134 kts 211°
2026-05-04 17:03 37.84588 -4.84615 305 ft 118 kts 210°
2026-05-04 17:03 37.84090 -4.84961 301 ft 39 kts 206°
2026-05-04 17:03 37.83755 -4.85197 306 ft 24 kts 209°
2026-05-04 17:04 37.83530 -4.85346 307 ft 12 kts 198°
2026-05-04 17:04 37.83468 -4.85399 308 ft 11 kts 25°
2026-05-04 17:05 37.83591 -4.85314 305 ft 10 kts 29°
2026-05-04 17:05 37.83810 -4.85162 304 ft 26 kts 29°
2026-05-04 17:06 37.84142 -4.84931 303 ft 28 kts 28°
2026-05-04 17:06 37.84309 -4.84815 304 ft 27 kts 30°
2026-05-04 17:07 37.84533 -4.84653 305 ft 9 kts 47°
2026-05-04 17:07 37.84529 -4.84602 304 ft 9 kts 115°
2026-05-04 17:07 37.84492 -4.84520 305 ft 7 kts 120°
2026-05-04 17:07 37.84475 -4.84481 307 ft 4 kts 118°
2026-05-04 17:08 37.84479 -4.84440 306 ft 5 kts 37°
2026-05-04 17:08 37.84512 -4.84403 306 ft 1 kts 127°
2026-05-04 17:08 37.84500 -4.84407 306 ft 2 kts 210°
2026-05-04 17:09 37.84497 -4.84413 305 ft 0 kts 232°
2026-05-04 17:10 37.84512 -4.84416 308 ft 2 kts
2026-05-04 17:10 37.84525 -4.84420 306 ft 1 kts 213°
2026-05-04 17:11 37.84521 -4.84422 307 ft 0 kts 210°